Time;durP1;ratioP1;P1;durP2;ratioP2;P2;SDS_P1;SDS_P2;PMS_P1;PMS_P2;Temp;Humidity;BMP_temperature;BMP_pressure;BME280_temperature;BME280_humidity;BME280_pressure;Samples;Min_cycle;Max_cycle;Signal;HPM_P1;HPM_P2
2023/04/21 00:04:32;;;;;;;30.23;19.45;;;9.80;99.90;;;;;;4806329;29;20211;-79
2023/04/21 00:07:01;;;;;;;34.47;20.15;;;9.80;99.90;;;;;;4806005;29;20245;-79
2023/04/21 00:09:27;;;;;;;32.38;20.23;;;9.80;99.90;;;;;;4775837;29;20187;-79
2023/04/21 00:16:03;;;;;;;34.53;19.52;;;9.80;99.90;;;;;;4806426;29;20299;-79
2023/04/21 00:26:45;;;;;;;30.05;18.77;;;9.80;99.90;;;;;;4805883;29;20211;-80
2023/04/21 00:29:11;;;;;;;41.75;19.83;;;9.80;99.90;;;;;;4772104;30;20193;-80
2023/04/21 00:31:37;;;;;;;28.90;19.52;;;9.80;99.90;;;;;;4742613;30;20185;-79
2023/04/21 00:34:04;;;;;;;29.92;19.52;;;9.80;99.90;;;;;;4775145;30;20247;-79
2023/04/21 00:36:30;;;;;;;33.63;19.95;;;9.70;99.90;;;;;;4774989;30;20216;-79
2023/04/21 00:38:56;;;;;;;36.08;20.38;;;9.70;99.90;;;;;;4775898;30;20196;-79
2023/04/21 00:41:22;;;;;;;36.10;20.42;;;9.70;99.90;;;;;;4775915;30;20539;-79
2023/04/21 00:44:02;;;;;;;31.70;19.38;;;9.70;99.90;;;;;;4775677;30;20565;-80
2023/04/21 00:46:30;;;;;;;33.05;20.88;;;9.70;99.90;;;;;;4774995;30;20181;-79
2023/04/21 00:48:57;;;;;;;37.65;20.25;;;9.60;99.90;;;;;;4791113;30;20290;-79
2023/04/21 00:51:23;;;;;;;34.50;19.65;;;9.70;99.90;;;;;;4775220;30;20313;-78
2023/04/21 00:53:50;;;;;;;33.72;20.27;;;9.60;99.90;;;;;;4774979;30;20624;-79
2023/04/21 00:56:17;;;;;;;35.35;20.65;;;9.60;99.90;;;;;;4774971;30;20185;-79
2023/04/21 01:02:38;;;;;;;30.92;18.90;;;9.60;99.90;;;;;;4791114;30;20316;-78
2023/04/21 01:05:08;;;;;;;32.40;19.52;;;9.50;99.90;;;;;;4760085;30;20607;-79
2023/04/21 01:07:37;;;;;;;37.42;20.83;;;9.50;99.90;;;;;;4791334;29;20222;-79
2023/04/21 01:10:04;;;;;;;31.67;20.10;;;9.50;99.90;;;;;;4808770;29;20561;-81
2023/04/21 01:12:30;;;;;;;34.58;20.38;;;9.50;99.90;;;;;;4763063;29;20237;-79
2023/04/21 01:14:58;;;;;;;32.72;20.00;;;9.40;99.90;;;;;;4777695;29;20291;-79
2023/04/21 01:17:24;;;;;;;34.75;20.52;;;9.40;99.90;;;;;;4792474;29;20253;-79
2023/04/21 01:19:52;;;;;;;30.00;20.13;;;9.40;99.90;;;;;;4792581;29;20653;-79
2023/04/21 01:22:55;;;;;;;30.63;20.05;;;9.40;99.90;;;;;;4780731;30;20219;-79
2023/04/21 01:25:24;;;;;;;30.85;20.10;;;9.40;99.90;;;;;;4756974;30;20232;-79
2023/04/21 01:27:51;;;;;;;29.70;19.50;;;9.30;99.90;;;;;;4756451;30;20212;-79
2023/04/21 01:30:20;;;;;;;32.38;19.67;;;9.30;99.90;;;;;;4757452;30;20284;-78
2023/04/21 01:32:45;;;;;;;35.80;20.63;;;9.30;99.90;;;;;;4741918;30;20300;-79
2023/04/21 01:35:11;;;;;;;35.58;20.08;;;9.30;99.90;;;;;;4742076;30;20200;-79
2023/04/21 01:37:38;;;;;;;30.10;19.88;;;9.30;99.90;;;;;;4741872;30;20182;-79
2023/04/21 01:40:07;;;;;;;32.50;19.63;;;9.30;99.90;;;;;;4756141;30;20270;-79
2023/04/21 01:42:36;;;;;;;33.63;18.30;;;9.30;99.90;;;;;;4756149;30;20185;-78
2023/04/21 01:45:02;;;;;;;31.73;19.23;;;9.30;99.90;;;;;;4772528;30;20242;-78
2023/04/21 01:47:28;;;;;;;33.72;18.52;;;9.20;99.90;;;;;;4741513;30;20190;-78
2023/04/21 01:49:53;;;;;;;32.20;19.80;;;9.20;99.90;;;;;;4757061;30;20193;-78
2023/04/21 01:52:20;;;;;;;30.60;19.65;;;9.20;99.90;;;;;;4756347;30;20198;-79
2023/04/21 01:54:46;;;;;;;31.27;19.63;;;9.20;99.90;;;;;;4741377;30;20197;-78
2023/04/21 01:57:13;;;;;;;35.50;20.00;;;9.20;99.90;;;;;;4756256;30;20634;-78
2023/04/21 01:59:39;;;;;;;36.60;19.92;;;9.20;99.90;;;;;;4756404;30;20583;-79
2023/04/21 02:02:05;;;;;;;31.63;19.27;;;9.20;99.90;;;;;;4746984;30;20222;-79
2023/04/21 02:04:32;;;;;;;33.53;19.20;;;9.20;99.90;;;;;;4754207;30;20312;-79
2023/04/21 02:06:59;;;;;;;30.48;19.08;;;9.20;99.90;;;;;;4753128;30;20640;-79
2023/04/21 02:09:24;;;;;;;35.83;18.90;;;9.20;99.90;;;;;;4753224;30;20200;-78
2023/04/21 02:11:52;;;;;;;36.25;20.23;;;9.10;99.90;;;;;;4756256;30;20197;-79
2023/04/21 02:14:18;;;;;;;31.65;19.70;;;9.10;99.90;;;;;;4756095;30;20196;-79
2023/04/21 02:16:44;;;;;;;29.45;19.52;;;9.10;99.90;;;;;;4755645;30;20197;-79
2023/04/21 02:19:09;;;;;;;31.90;19.60;;;9.10;99.90;;;;;;4755654;30;20197;-83
2023/04/21 02:21:35;;;;;;;34.38;19.67;;;9.10;99.90;;;;;;4752859;30;20709;-80
2023/04/21 02:24:01;;;;;;;29.27;19.48;;;9.00;99.90;;;;;;4746290;30;20332;-79
2023/04/21 02:26:27;;;;;;;35.28;20.30;;;9.00;99.90;;;;;;4770745;30;20201;-79
2023/04/21 02:28:53;;;;;;;35.90;20.58;;;9.00;99.90;;;;;;4770735;30;20224;-80
2023/04/21 02:31:19;;;;;;;29.48;19.73;;;9.00;99.90;;;;;;4755663;30;20197;-79
2023/04/21 02:33:45;;;;;;;32.75;20.00;;;9.00;99.90;;;;;;4771636;30;20534;-79
2023/04/21 02:36:11;;;;;;;38.28;19.95;;;9.00;99.90;;;;;;4755460;30;20636;-79
2023/04/21 02:38:37;;;;;;;28.52;20.10;;;9.00;99.90;;;;;;4770354;30;20246;-79
2023/04/21 02:41:02;;;;;;;39.47;20.30;;;9.00;99.90;;;;;;4769821;30;20186;-80
2023/04/21 02:43:28;;;;;;;35.17;19.98;;;9.00;99.90;;;;;;4755261;30;20227;-80
2023/04/21 02:45:54;;;;;;;34.67;20.75;;;9.00;99.90;;;;;;4755781;30;20650;-79
2023/04/21 02:48:21;;;;;;;30.88;20.40;;;9.00;99.90;;;;;;4789238;30;20246;-80
2023/04/21 02:50:52;;;;;;;34.20;20.30;;;9.00;99.90;;;;;;4789082;30;20187;-82
2023/04/21 02:53:19;;;;;;;36.80;20.92;;;9.00;99.90;;;;;;4772788;30;20566;-79
2023/04/21 02:55:44;;;;;;;37.17;20.58;;;8.90;99.90;;;;;;4772485;30;20196;-80
2023/04/21 02:58:10;;;;;;;34.22;20.30;;;8.90;99.90;;;;;;4772667;30;20271;-79
2023/04/21 03:00:36;;;;;;;30.98;19.65;;;8.90;99.90;;;;;;4789032;30;20216;-79
2023/04/21 03:03:02;;;;;;;34.47;21.15;;;8.90;99.90;;;;;;4757763;30;20225;-79
2023/04/21 03:05:28;;;;;;;33.28;20.92;;;8.90;99.90;;;;;;4771019;30;20193;-80
2023/04/21 03:07:54;;;;;;;37.35;20.65;;;8.90;99.90;;;;;;4769629;30;20549;-79
2023/04/21 03:10:20;;;;;;;34.10;20.08;;;8.90;99.90;;;;;;4754908;30;20196;-79
2023/04/21 03:12:46;;;;;;;36.17;20.05;;;8.90;99.90;;;;;;4769532;30;20615;-79
2023/04/21 03:15:13;;;;;;;29.92;20.17;;;8.90;99.90;;;;;;4769684;30;20272;-79
2023/04/21 03:17:42;;;;;;;31.63;20.42;;;8.90;99.90;;;;;;4770414;30;20631;-79
2023/04/21 03:20:09;;;;;;;33.20;19.63;;;8.90;99.90;;;;;;4770411;30;20277;-79
2023/04/21 03:22:36;;;;;;;34.00;19.58;;;8.90;99.90;;;;;;4770190;30;20623;-79
2023/04/21 03:25:02;;;;;;;28.77;18.52;;;8.90;99.90;;;;;;4766950;29;20742;-79
2023/04/21 03:27:28;;;;;;;29.70;18.98;;;8.90;99.90;;;;;;4790720;29;20192;-79
2023/04/21 03:33:48;;;;;;;35.63;18.60;;;8.90;99.90;;;;;;4806789;29;20224;-79
2023/04/21 03:36:15;;;;;;;31.92;18.42;;;8.90;99.90;;;;;;4790355;29;20200;-79
2023/04/21 03:38:40;;;;;;;29.67;18.35;;;8.90;99.90;;;;;;4806598;29;20184;-79
2023/04/21 03:41:06;;;;;;;31.88;17.58;;;8.90;99.90;;;;;;4806554;29;20199;-79
2023/04/21 03:43:32;;;;;;;27.63;17.98;;;8.90;99.90;;;;;;4790139;29;20587;-79
2023/04/21 03:45:58;;;;;;;31.95;17.58;;;8.90;99.90;;;;;;4775567;29;20191;-79
2023/04/21 03:48:23;;;;;;;31.17;16.98;;;8.90;99.90;;;;;;4775895;29;20188;-79
2023/04/21 03:50:49;;;;;;;32.40;16.70;;;8.90;99.90;;;;;;4789865;29;20272;-79
2023/04/21 03:53:15;;;;;;;32.90;17.88;;;8.90;99.90;;;;;;4790163;29;20200;-78
2023/04/21 03:55:41;;;;;;;32.05;17.48;;;8.90;99.90;;;;;;4775355;29;20592;-79
2023/04/21 03:58:06;;;;;;;28.00;17.15;;;8.90;99.90;;;;;;4788958;29;20192;-78
2023/04/21 04:00:32;;;;;;;30.38;17.88;;;8.90;99.90;;;;;;4773018;30;20192;-78
2023/04/21 04:02:59;;;;;;;28.25;17.65;;;8.90;99.90;;;;;;4788222;30;20285;-79
2023/04/21 04:05:25;;;;;;;27.00;17.15;;;8.90;99.90;;;;;;4772808;30;20201;-79
2023/04/21 04:07:51;;;;;;;29.88;18.25;;;8.90;99.90;;;;;;4797683;29;20184;-79
2023/04/21 04:10:16;;;;;;;30.08;18.02;;;8.90;99.90;;;;;;4791439;30;20200;-79
2023/04/21 04:12:42;;;;;;;28.73;17.92;;;8.90;99.90;;;;;;4776027;30;20528;-79
2023/04/21 04:15:08;;;;;;;28.77;16.75;;;8.90;99.90;;;;;;4791981;30;20200;-79
2023/04/21 04:17:34;;;;;;;26.95;15.85;;;8.90;99.90;;;;;;4775331;30;20216;-79
2023/04/21 04:20:00;;;;;;;27.58;17.15;;;8.90;99.90;;;;;;4775567;30;20220;-79
2023/04/21 04:22:26;;;;;;;26.30;16.60;;;8.90;99.90;;;;;;4791970;30;20196;-79
2023/04/21 04:24:52;;;;;;;30.10;16.48;;;8.90;99.90;;;;;;4791254;30;20240;-79
2023/04/21 04:27:19;;;;;;;28.35;17.02;;;8.90;99.90;;;;;;4775460;30;20200;-79
2023/04/21 04:29:45;;;;;;;33.25;16.35;;;8.90;99.90;;;;;;4775462;30;20196;-79
2023/04/21 04:32:11;;;;;;;30.75;16.73;;;8.90;99.90;;;;;;4791182;30;20200;-79
2023/04/21 04:34:37;;;;;;;22.13;14.95;;;8.90;99.90;;;;;;4775222;30;20676;-79
2023/04/21 04:37:03;;;;;;;29.15;16.30;;;8.90;99.90;;;;;;4777987;30;20205;-79
2023/04/21 04:39:30;;;;;;;24.30;16.13;;;8.90;99.90;;;;;;4775126;30;20275;-79
2023/04/21 04:41:56;;;;;;;27.42;16.77;;;8.90;99.90;;;;;;4760152;30;20568;-78
2023/04/21 04:44:22;;;;;;;29.30;16.23;;;8.90;99.90;;;;;;4775157;30;20216;-78
2023/04/21 04:46:48;;;;;;;24.50;15.88;;;8.90;99.90;;;;;;4774929;30;20200;-78
2023/04/21 04:49:14;;;;;;;29.98;16.35;;;9.00;99.90;;;;;;4775069;30;20197;-80
2023/04/21 04:51:40;;;;;;;29.10;16.25;;;9.00;99.90;;;;;;4790813;30;20191;-80
2023/04/21 04:54:05;;;;;;;29.58;16.00;;;9.00;99.90;;;;;;4774748;30;20246;-80
2023/04/21 04:56:31;;;;;;;32.42;15.93;;;9.00;99.90;;;;;;4770252;29;20276;-79
2023/04/21 04:58:57;;;;;;;23.80;15.82;;;9.00;99.90;;;;;;4808396;29;20188;-79
2023/04/21 05:01:28;;;;;;;27.83;16.33;;;9.00;99.90;;;;;;4779100;30;20196;-79
2023/04/21 05:03:55;;;;;;;27.77;15.98;;;9.00;99.90;;;;;;4763326;30;20229;-83
2023/04/21 05:06:20;;;;;;;30.42;15.63;;;9.00;99.90;;;;;;4758199;30;20217;-80
2023/04/21 05:08:46;;;;;;;26.55;15.70;;;9.00;99.90;;;;;;4790358;30;20230;-80
2023/04/21 05:11:12;;;;;;;24.17;14.35;;;9.10;99.90;;;;;;4786574;29;20193;-80
2023/04/21 05:13:37;;;;;;;25.92;15.25;;;9.10;99.90;;;;;;4788702;29;20212;-81
2023/04/21 05:16:04;;;;;;;26.58;15.02;;;9.10;99.90;;;;;;4801169;29;20192;-80
2023/04/21 05:18:29;;;;;;;30.65;15.38;;;9.10;99.90;;;;;;4808113;29;20180;-80
2023/04/21 05:20:55;;;;;;;25.83;15.32;;;9.10;99.90;;;;;;4777183;29;20240;-80
2023/04/21 05:23:21;;;;;;;26.55;15.23;;;9.20;99.90;;;;;;4807921;29;20227;-79
2023/04/21 05:25:47;;;;;;;25.10;15.20;;;9.20;99.90;;;;;;4762620;30;20670;-83
2023/04/21 05:28:14;;;;;;;30.65;15.07;;;9.20;99.90;;;;;;4790127;30;20185;-81
2023/04/21 05:30:40;;;;;;;24.73;15.18;;;9.30;99.90;;;;;;4790176;29;20205;-80
2023/04/21 05:33:05;;;;;;;22.27;14.85;;;9.40;99.90;;;;;;4773123;30;20193;-80
2023/04/21 05:35:32;;;;;;;29.25;14.95;;;9.70;99.90;;;;;;4773574;30;20642;-80
2023/04/21 05:37:58;;;;;;;25.05;14.73;;;9.90;99.90;;;;;;4788832;29;20193;-80
2023/04/21 05:40:24;;;;;;;27.38;14.98;;;10.00;99.90;;;;;;4773611;30;20192;-81
2023/04/21 05:42:49;;;;;;;30.77;15.50;;;9.90;99.90;;;;;;4789552;30;20220;-80
2023/04/21 05:45:15;;;;;;;26.45;14.05;;;9.90;99.90;;;;;;4789623;29;20193;-81
2023/04/21 05:47:41;;;;;;;27.60;15.63;;;9.90;99.90;;;;;;4786283;30;20199;-80
2023/04/21 05:50:07;;;;;;;25.00;14.88;;;9.80;99.90;;;;;;4773013;29;20594;-81
2023/04/21 05:52:33;;;;;;;24.30;14.93;;;9.80;99.90;;;;;;4789903;30;20199;-80
2023/04/21 05:55:00;;;;;;;29.83;15.18;;;9.80;99.90;;;;;;4773339;30;20201;-79
2023/04/21 05:57:25;;;;;;;23.02;14.90;;;9.80;99.90;;;;;;4789382;30;20197;-80
2023/04/21 05:59:51;;;;;;;29.33;14.65;;;9.80;99.90;;;;;;4788911;29;20651;-80
2023/04/21 06:02:17;;;;;;;23.85;14.50;;;9.80;99.90;;;;;;4772947;29;20196;-80
2023/04/21 06:04:43;;;;;;;25.13;13.98;;;9.80;99.90;;;;;;4806116;29;20310;-80
2023/04/21 06:07:12;;;;;;;26.10;13.57;;;10.00;99.90;;;;;;4769562;30;20220;-81
2023/04/21 06:09:39;;;;;;;27.45;14.23;;;10.00;99.90;;;;;;4789275;30;20344;-79
2023/04/21 06:12:05;;;;;;;28.13;14.43;;;10.00;99.90;;;;;;4772785;30;20195;-80
2023/04/21 06:14:31;;;;;;;22.08;13.88;;;10.10;99.90;;;;;;4772972;30;20190;-80
2023/04/21 06:16:57;;;;;;;23.60;13.85;;;10.10;99.90;;;;;;4788896;29;20224;-84
2023/04/21 06:19:23;;;;;;;24.40;14.55;;;10.20;99.90;;;;;;4772617;29;20287;-80
2023/04/21 06:21:49;;;;;;;27.60;13.70;;;10.20;99.90;;;;;;4788950;30;20383;-80
2023/04/21 06:24:15;;;;;;;26.58;14.15;;;10.30;99.90;;;;;;4772644;30;20244;-80
2023/04/21 06:26:41;;;;;;;25.02;13.00;;;10.60;99.90;;;;;;4788600;29;20279;-81
2023/04/21 06:29:07;;;;;;;24.10;13.15;;;10.70;99.90;;;;;;4783455;29;20325;-80
2023/04/21 06:31:33;;;;;;;25.38;13.40;;;10.90;99.90;;;;;;4769714;30;20283;-79
2023/04/21 06:33:58;;;;;;;24.65;13.52;;;11.00;99.90;;;;;;4774469;30;20193;-79
2023/04/21 06:36:24;;;;;;;22.55;12.77;;;11.00;99.90;;;;;;4782978;29;20200;-81
2023/04/21 06:38:50;;;;;;;21.33;13.55;;;11.00;99.90;;;;;;4771032;30;20211;-80
2023/04/21 06:41:17;;;;;;;23.15;13.70;;;11.00;99.90;;;;;;4769149;30;20286;-80
2023/04/21 06:43:42;;;;;;;25.20;13.00;;;10.90;99.90;;;;;;4770560;30;20217;-79
2023/04/21 06:46:08;;;;;;;25.42;13.18;;;10.90;99.90;;;;;;4770554;30;20227;-80
2023/04/21 06:48:34;;;;;;;25.10;13.57;;;11.00;99.90;;;;;;4784999;29;20547;-79
2023/04/21 06:51:01;;;;;;;28.98;13.43;;;11.00;99.90;;;;;;4785690;29;20283;-80
2023/04/21 06:53:27;;;;;;;23.00;13.95;;;11.00;99.90;;;;;;4773832;30;20280;-79
2023/04/21 06:55:53;;;;;;;28.15;14.07;;;11.10;99.90;;;;;;4754849;30;20707;-79
2023/04/21 06:58:18;;;;;;;23.38;13.43;;;11.10;99.90;;;;;;4771806;30;20576;-79
2023/04/21 07:00:45;;;;;;;25.85;13.25;;;11.40;99.90;;;;;;4775321;30;20464;-80
2023/04/21 07:03:11;;;;;;;26.63;12.55;;;11.70;99.90;;;;;;4776840;30;20213;-80
2023/04/21 07:05:37;;;;;;;21.90;12.88;;;11.80;99.90;;;;;;4770575;30;20205;-80
2023/04/21 07:08:02;;;;;;;23.02;12.80;;;11.80;99.90;;;;;;4768928;30;20283;-80
2023/04/21 07:10:28;;;;;;;23.42;13.38;;;11.80;99.90;;;;;;4780119;29;20216;-82
2023/04/21 07:12:55;;;;;;;24.35;13.23;;;11.80;99.90;;;;;;4774038;30;20570;-82
2023/04/21 07:15:21;;;;;;;25.85;13.32;;;11.80;99.90;;;;;;4787891;30;20273;-79
2023/04/21 07:17:46;;;;;;;21.70;12.45;;;12.00;99.90;;;;;;4773288;30;20208;-81
2023/04/21 07:20:12;;;;;;;27.13;13.32;;;12.00;99.90;;;;;;4776663;30;20197;-81
2023/04/21 07:22:38;;;;;;;23.25;13.10;;;12.10;99.90;;;;;;4774698;29;20562;-81
2023/04/21 07:25:07;;;;;;;29.25;12.98;;;12.10;99.90;;;;;;4768683;30;20228;-82
2023/04/21 07:27:35;;;;;;;25.98;13.25;;;12.40;99.90;;;;;;4765449;30;20196;-79
2023/04/21 07:30:02;;;;;;;26.02;13.05;;;13.30;99.90;;;;;;4787881;29;20196;-81
2023/04/21 07:32:28;;;;;;;21.52;12.32;;;14.50;99.90;;;;;;4784778;29;20216;-81
2023/04/21 07:34:54;;;;;;;23.00;13.30;;;15.10;99.90;;;;;;4788112;30;20654;-82
2023/04/21 07:37:20;;;;;;;28.48;12.57;;;15.20;99.90;;;;;;4785826;30;20193;-81
2023/04/21 07:39:46;;;;;;;25.88;12.18;;;15.30;99.90;;;;;;4786658;29;20209;-81
2023/04/21 07:42:13;;;;;;;20.27;11.77;;;15.30;99.90;;;;;;4786478;29;20192;-80
2023/04/21 07:44:38;;;;;;;23.80;12.25;;;15.30;99.90;;;;;;4777449;29;20335;-82
2023/04/21 07:47:04;;;;;;;30.42;12.25;;;15.30;99.90;;;;;;4787303;29;20283;-79
2023/04/21 07:49:30;;;;;;;22.38;11.38;;;15.30;99.90;;;;;;4784921;29;20196;-81
2023/04/21 07:51:56;;;;;;;22.25;11.82;;;15.20;99.90;;;;;;4775337;30;20199;-81
2023/04/21 07:54:22;;;;;;;20.77;10.90;;;15.50;99.90;;;;;;4770337;30;20234;-81
2023/04/21 07:56:47;;;;;;;23.38;11.45;;;16.30;99.90;;;;;;4791957;29;20192;-81
2023/04/21 07:59:13;;;;;;;22.55;11.80;;;17.10;99.90;;;;;;4789573;29;20653;-82
2023/04/21 08:01:39;;;;;;;23.80;11.73;;;17.70;99.90;;;;;;4780363;29;20212;-82
2023/04/21 08:04:05;;;;;;;19.65;11.52;;;18.00;99.90;;;;;;4775447;30;20227;-82
2023/04/21 08:06:32;;;;;;;20.75;12.73;;;18.00;99.90;;;;;;4774478;29;20197;-81
2023/04/21 08:08:58;;;;;;;24.92;11.32;;;17.70;99.90;;;;;;4771175;29;20200;-81
2023/04/21 08:11:24;;;;;;;23.80;11.75;;;17.40;99.90;;;;;;4787766;30;20237;-82
2023/04/21 08:13:50;;;;;;;21.23;11.68;;;17.20;99.90;;;;;;4765372;30;20596;-81
2023/04/21 08:16:16;;;;;;;23.00;10.52;;;17.10;99.90;;;;;;4759646;30;20207;-81
2023/04/21 08:18:41;;;;;;;19.75;11.25;;;16.80;99.90;;;;;;4756611;30;20189;-81
2023/04/21 08:21:07;;;;;;;18.65;11.07;;;16.70;99.90;;;;;;4761728;30;20319;-81
2023/04/21 08:23:33;;;;;;;15.98;11.27;;;16.50;99.90;;;;;;4787398;30;20225;-81
2023/04/21 08:26:01;;;;;;;21.40;10.52;;;16.30;99.90;;;;;;4760783;30;20236;-82
2023/04/21 08:28:26;;;;;;;24.00;11.68;;;16.10;99.90;;;;;;4767552;30;20259;-82
2023/04/21 08:30:52;;;;;;;22.08;11.25;;;16.10;99.90;;;;;;4770544;30;20201;-83
2023/04/21 08:33:18;;;;;;;22.55;11.70;;;16.10;99.90;;;;;;4770527;30;20296;-82
2023/04/21 08:35:44;;;;;;;27.13;11.35;;;16.00;99.90;;;;;;4755591;30;20196;-81
2023/04/21 08:38:09;;;;;;;22.70;11.45;;;16.00;99.90;;;;;;4784835;29;20193;-81
2023/04/21 08:40:37;;;;;;;23.27;11.18;;;16.00;99.90;;;;;;4771540;30;20218;-81
2023/04/21 08:43:07;;;;;;;21.30;11.30;;;16.10;99.90;;;;;;4770095;30;20220;-81
2023/04/21 08:45:34;;;;;;;20.33;11.48;;;16.30;99.90;;;;;;4787293;30;20185;-81
2023/04/21 08:48:03;;;;;;;22.60;11.07;;;16.40;99.90;;;;;;4784803;29;20215;-80
2023/04/21 08:50:30;;;;;;;22.88;11.32;;;16.50;99.90;;;;;;4787381;30;20236;-83
2023/04/21 08:52:56;;;;;;;18.13;10.75;;;16.60;99.90;;;;;;4770281;30;20205;-81
2023/04/21 08:55:29;;;;;;;20.33;10.50;;;16.60;99.90;;;;;;4774727;30;20193;-81
2023/04/21 08:57:55;;;;;;;22.08;11.38;;;16.70;99.90;;;;;;4797031;29;20192;-81
2023/04/21 09:00:21;;;;;;;18.77;11.07;;;16.70;99.90;;;;;;4790853;30;20237;-81
2023/04/21 09:02:59;;;;;;;25.95;10.98;;;16.80;99.90;;;;;;4760020;30;20193;-80
2023/04/21 09:05:30;;;;;;;19.20;11.25;;;16.90;99.90;;;;;;4773112;30;20193;-81
2023/04/21 09:08:12;;;;;;;21.70;11.55;;;17.00;99.90;;;;;;4772356;29;20294;-81
2023/04/21 09:10:47;;;;;;;19.80;10.38;;;17.10;99.90;;;;;;4772411;30;20234;-81
2023/04/21 09:13:13;;;;;;;30.70;10.80;;;17.10;99.90;;;;;;4788376;30;20207;-80
2023/04/21 09:15:44;;;;;;;15.52;10.02;;;17.20;99.90;;;;;;4790024;30;20184;-80
2023/04/21 09:18:16;;;;;;;17.92;10.23;;;17.20;99.90;;;;;;4780161;30;20197;-81
2023/04/21 09:20:44;;;;;;;20.15;10.45;;;17.30;99.90;;;;;;4772662;30;20661;-81
2023/04/21 09:23:10;;;;;;;22.80;10.60;;;17.40;99.90;;;;;;4770491;30;20229;-80
2023/04/21 09:25:41;;;;;;;25.60;10.55;;;17.50;99.90;;;;;;4780873;29;20241;-79
2023/04/21 09:28:11;;;;;;;14.35;9.45;;;17.70;99.90;;;;;;4781221;30;20222;-78
2023/04/21 09:30:39;;;;;;;20.15;9.80;;;17.80;99.90;;;;;;4770456;30;20217;-82
2023/04/21 09:33:05;;;;;;;25.23;10.23;;;17.90;99.90;;;;;;4771653;30;20274;-81
2023/04/21 09:35:36;;;;;;;21.08;9.77;;;18.00;99.90;;;;;;4779301;29;20204;-82
2023/04/21 09:38:03;;;;;;;24.73;9.98;;;18.00;99.90;;;;;;4772020;30;20192;-82
2023/04/21 09:40:29;;;;;;;18.20;9.98;;;17.90;99.90;;;;;;4742447;29;20189;-81
2023/04/21 09:42:56;;;;;;;20.55;10.10;;;17.90;99.90;;;;;;4742537;30;20211;-82
2023/04/21 09:45:29;;;;;;;19.58;10.15;;;18.00;99.90;;;;;;4785720;30;20189;-87
2023/04/21 09:48:00;;;;;;;22.63;9.63;;;18.10;99.90;;;;;;4783734;30;20694;-89
2023/04/21 09:50:26;;;;;;;16.52;9.55;;;18.20;99.90;;;;;;4756303;30;20238;-80
2023/04/21 09:52:54;;;;;;;19.88;9.60;;;18.30;99.80;;;;;;4764135;30;20217;-80
2023/04/21 09:55:28;;;;;;;21.73;9.48;;;18.40;99.60;;;;;;4785291;30;20196;-80
2023/04/21 09:57:59;;;;;;;20.35;9.60;;;18.40;99.10;;;;;;4801254;29;20200;-80
2023/04/21 10:00:27;;;;;;;20.75;9.55;;;18.50;98.50;;;;;;4807481;29;20234;-81
2023/04/21 10:02:56;;;;;;;15.73;9.43;;;18.60;98.00;;;;;;4785656;30;20188;-81
2023/04/21 10:05:22;;;;;;;19.63;9.82;;;18.60;97.70;;;;;;4786551;29;20232;-81
2023/04/21 10:07:49;;;;;;;22.45;9.32;;;18.60;97.30;;;;;;4787794;29;20598;-81
2023/04/21 10:10:21;;;;;;;19.80;9.10;;;18.70;97.00;;;;;;4781515;30;20277;-81
2023/04/21 10:12:48;;;;;;;20.05;9.70;;;18.80;96.90;;;;;;4772290;30;20185;-82
2023/04/21 10:15:37;;;;;;;19.92;10.65;;;19.00;96.70;;;;;;4765783;30;20192;-81
2023/04/21 10:18:22;;;;;;;19.10;8.95;;;19.10;96.00;;;;;;4769896;30;20288;-81
2023/04/21 10:21:02;;;;;;;20.95;9.93;;;19.30;95.10;;;;;;4757613;30;20197;-83
2023/04/21 10:23:48;;;;;;;18.65;9.60;;;19.30;95.20;;;;;;4758654;29;20246;-81
2023/04/21 10:26:26;;;;;;;15.80;9.40;;;19.40;95.20;;;;;;4782828;30;20229;-82
2023/04/21 10:28:56;;;;;;;22.70;10.05;;;19.50;94.90;;;;;;4768492;30;20188;-83
2023/04/21 10:31:29;;;;;;;20.65;10.43;;;19.50;94.30;;;;;;4770855;30;20197;-82
2023/04/21 10:34:07;;;;;;;16.50;9.35;;;19.50;93.70;;;;;;4782243;29;20188;-82
2023/04/21 10:36:53;;;;;;;20.13;9.25;;;19.50;93.60;;;;;;4771273;30;20196;-81
2023/04/21 10:39:27;;;;;;;22.27;9.35;;;19.60;93.70;;;;;;4761870;30;20295;-82
2023/04/21 10:41:57;;;;;;;17.65;9.00;;;19.70;93.60;;;;;;4785890;30;20267;-82
2023/04/21 10:44:23;;;;;;;14.38;8.68;;;19.70;93.10;;;;;;4786702;29;20220;-82
2023/04/21 10:46:51;;;;;;;19.25;9.93;;;19.70;93.00;;;;;;4765575;30;20198;-82
2023/04/21 10:49:25;;;;;;;23.85;9.27;;;19.70;92.60;;;;;;4772616;30;20219;-82
2023/04/21 10:52:01;;;;;;;16.77;8.50;;;19.80;92.90;;;;;;4781441;30;20200;-82
2023/04/21 10:54:48;;;;;;;15.52;8.95;;;19.90;92.70;;;;;;4785270;29;20199;-82
2023/04/21 10:57:19;;;;;;;15.35;8.40;;;20.00;92.40;;;;;;4767827;30;20208;-82
2023/04/21 10:59:46;;;;;;;18.55;8.50;;;20.10;91.70;;;;;;4780924;30;20193;-81
2023/04/21 11:02:14;;;;;;;16.60;8.40;;;20.20;91.60;;;;;;4769490;30;20291;-82
2023/04/21 11:04:43;;;;;;;13.68;7.13;;;20.20;91.00;;;;;;4785657;29;20220;-83
2023/04/21 11:07:13;;;;;;;18.27;8.00;;;20.30;90.50;;;;;;4778045;29;20193;-83
2023/04/21 11:09:40;;;;;;;17.48;7.53;;;20.40;89.50;;;;;;4754500;30;20182;-82
2023/04/21 11:12:09;;;;;;;14.05;7.28;;;20.40;87.40;;;;;;4778829;30;20185;-82
2023/04/21 11:14:37;;;;;;;17.10;7.20;;;20.40;85.90;;;;;;4758184;30;20201;-81
2023/04/21 11:17:09;;;;;;;17.00;7.18;;;20.40;85.60;;;;;;4766365;30;20258;-84
2023/04/21 11:19:35;;;;;;;15.90;7.30;;;20.40;84.20;;;;;;4770809;29;20193;-82
2023/04/21 11:22:03;;;;;;;12.38;6.70;;;20.50;84.00;;;;;;4781312;30;20246;-82
2023/04/21 11:24:30;;;;;;;22.52;7.63;;;20.60;83.20;;;;;;4740834;30;20690;-82
2023/04/21 11:26:55;;;;;;;18.60;7.50;;;20.60;82.90;;;;;;4764323;30;20189;-83
2023/04/21 11:29:21;;;;;;;17.20;7.15;;;20.50;82.10;;;;;;4767269;30;20612;-83
2023/04/21 11:31:49;;;;;;;15.18;7.30;;;20.50;82.00;;;;;;4761662;30;20644;-83
2023/04/21 11:34:15;;;;;;;13.88;6.45;;;20.50;82.00;;;;;;4751895;30;20569;-82
2023/04/21 11:36:46;;;;;;;16.92;6.97;;;20.60;81.60;;;;;;4742340;30;20202;-82
2023/04/21 11:39:14;;;;;;;23.90;7.00;;;20.60;80.10;;;;;;4769261;30;20189;-82
2023/04/21 11:41:42;;;;;;;20.80;6.18;;;20.60;79.40;;;;;;4768852;30;20204;-82
2023/04/21 11:44:09;;;;;;;16.08;6.90;;;20.70;77.90;;;;;;4765853;30;20224;-82
2023/04/21 11:46:36;;;;;;;18.48;6.07;;;20.70;76.30;;;;;;4766912;30;20201;-81
2023/04/21 11:49:04;;;;;;;20.58;6.97;;;20.60;76.20;;;;;;4751277;30;20567;-82
2023/04/21 11:51:43;;;;;;;14.55;6.25;;;20.60;75.90;;;;;;4767380;30;20204;-82
2023/04/21 11:54:13;;;;;;;19.98;6.25;;;20.60;75.80;;;;;;4769040;30;20177;-81
2023/04/21 11:56:39;;;;;;;19.48;6.65;;;20.70;76.10;;;;;;4749817;30;20194;-82
2023/04/21 11:59:10;;;;;;;16.92;6.30;;;20.70;75.70;;;;;;4752666;30;20202;-83
2023/04/21 12:01:42;;;;;;;16.55;6.70;;;20.70;74.80;;;;;;4766624;30;20266;-83
2023/04/21 12:04:14;;;;;;;20.85;6.80;;;20.70;74.70;;;;;;4758099;30;20287;-82
2023/04/21 12:06:40;;;;;;;17.25;6.13;;;20.70;74.80;;;;;;4744340;30;20255;-84
2023/04/21 12:09:06;;;;;;;10.32;5.75;;;20.80;75.20;;;;;;4737589;30;20208;-82
2023/04/21 12:11:33;;;;;;;18.30;6.45;;;20.90;74.20;;;;;;4736873;30;20189;-82
2023/04/21 12:14:00;;;;;;;17.98;5.90;;;20.90;73.40;;;;;;4753834;30;20558;-82
2023/04/21 12:16:27;;;;;;;18.27;6.43;;;20.90;72.70;;;;;;4750998;30;20193;-82
2023/04/21 12:18:53;;;;;;;17.38;6.22;;;20.90;71.40;;;;;;4768647;30;20193;-82
2023/04/21 12:21:19;;;;;;;22.63;6.95;;;20.90;71.70;;;;;;4748121;30;20252;-80
2023/04/21 12:23:45;;;;;;;12.60;6.07;;;20.90;71.80;;;;;;4769209;30;20221;-81
2023/04/21 12:26:11;;;;;;;18.50;7.03;;;20.90;71.10;;;;;;4784876;30;20193;-82
2023/04/21 12:28:38;;;;;;;18.30;7.07;;;20.90;72.40;;;;;;4781101;29;20240;-81
2023/04/21 12:31:04;;;;;;;15.25;7.13;;;20.90;73.60;;;;;;4787977;30;20642;-81
2023/04/21 12:33:30;;;;;;;17.45;6.55;;;20.80;73.90;;;;;;4789775;30;20271;-82
2023/04/21 12:35:56;;;;;;;13.82;6.53;;;20.80;74.40;;;;;;4772954;30;20284;-82
2023/04/21 12:38:22;;;;;;;16.05;7.05;;;20.70;73.90;;;;;;4760223;29;20275;-81
2023/04/21 12:40:48;;;;;;;12.40;5.53;;;20.70;74.00;;;;;;4790042;29;20343;-85
2023/04/21 12:43:13;;;;;;;15.10;5.22;;;20.60;72.80;;;;;;4772785;30;20243;-81
2023/04/21 12:45:39;;;;;;;11.18;5.20;;;20.60;70.80;;;;;;4774643;30;20197;-81
2023/04/21 12:48:05;;;;;;;11.07;5.40;;;20.50;70.00;;;;;;4758849;30;20538;-81
2023/04/21 12:50:31;;;;;;;12.77;5.32;;;20.60;69.00;;;;;;4778916;29;20193;-81
2023/04/21 12:52:57;;;;;;;22.70;6.50;;;20.60;69.30;;;;;;4787168;30;20196;-80
2023/04/21 12:55:24;;;;;;;11.93;5.90;;;20.70;70.10;;;;;;4790369;30;20288;-81
2023/04/21 12:57:51;;;;;;;14.98;6.20;;;20.70;70.10;;;;;;4787638;30;20231;-81